sensor_id;sensor_type;location;lat;lon;timestamp;pressure;altitude;pressure_sealevel;temperature
75822;BMP180;64454;51.984;9.838;2022-11-18T00:01:47;98427.00;;;7.70
75822;BMP180;64454;51.984;9.838;2022-11-18T00:04:14;98428.00;;;7.70
75822;BMP180;64454;51.984;9.838;2022-11-18T00:06:41;98432.00;;;7.60
75822;BMP180;64454;51.984;9.838;2022-11-18T00:09:08;98438.00;;;7.50
75822;BMP180;64454;51.984;9.838;2022-11-18T00:11:35;98439.00;;;7.60
75822;BMP180;64454;51.984;9.838;2022-11-18T00:14:24;98434.00;;;7.50
75822;BMP180;64454;51.984;9.838;2022-11-18T00:16:54;98437.00;;;7.60
75822;BMP180;64454;51.984;9.838;2022-11-18T00:19:26;98438.00;;;7.50
75822;BMP180;64454;51.984;9.838;2022-11-18T00:21:54;98433.00;;;7.70
75822;BMP180;64454;51.984;9.838;2022-11-18T00:24:22;98438.00;;;7.40
75822;BMP180;64454;51.984;9.838;2022-11-18T00:26:49;98432.00;;;7.30
75822;BMP180;64454;51.984;9.838;2022-11-18T00:29:16;98433.00;;;7.40
75822;BMP180;64454;51.984;9.838;2022-11-18T00:31:45;98437.00;;;7.40
75822;BMP180;64454;51.984;9.838;2022-11-18T00:34:14;98435.00;;;7.60
75822;BMP180;64454;51.984;9.838;2022-11-18T00:36:43;98438.00;;;7.60
75822;BMP180;64454;51.984;9.838;2022-11-18T00:39:13;98437.00;;;7.40
75822;BMP180;64454;51.984;9.838;2022-11-18T00:41:40;98443.00;;;7.50
75822;BMP180;64454;51.984;9.838;2022-11-18T00:44:25;98443.00;;;7.50
75822;BMP180;64454;51.984;9.838;2022-11-18T00:46:54;98449.00;;;7.40
75822;BMP180;64454;51.984;9.838;2022-11-18T00:49:21;98446.00;;;7.40
75822;BMP180;64454;51.984;9.838;2022-11-18T00:51:48;98446.00;;;7.20
75822;BMP180;64454;51.984;9.838;2022-11-18T00:54:15;98445.00;;;7.50
75822;BMP180;64454;51.984;9.838;2022-11-18T00:56:42;98455.00;;;7.50
75822;BMP180;64454;51.984;9.838;2022-11-18T00:59:09;98456.00;;;7.50
75822;BMP180;64454;51.984;9.838;2022-11-18T01:01:36;98457.00;;;7.40
75822;BMP180;64454;51.984;9.838;2022-11-18T01:04:04;98466.00;;;7.40
75822;BMP180;64454;51.984;9.838;2022-11-18T01:06:31;98461.00;;;7.30
75822;BMP180;64454;51.984;9.838;2022-11-18T01:08:58;98463.00;;;7.30
75822;BMP180;64454;51.984;9.838;2022-11-18T01:11:25;98473.00;;;7.40
75822;BMP180;64454;51.984;9.838;2022-11-18T01:14:09;98472.00;;;7.30
75822;BMP180;64454;51.984;9.838;2022-11-18T01:16:36;98474.00;;;7.30
75822;BMP180;64454;51.984;9.838;2022-11-18T01:19:05;98466.00;;;7.40
75822;BMP180;64454;51.984;9.838;2022-11-18T01:21:32;98477.00;;;7.20
75822;BMP180;64454;51.984;9.838;2022-11-18T01:23:59;98471.00;;;7.50
75822;BMP180;64454;51.984;9.838;2022-11-18T01:26:26;98474.00;;;7.40
75822;BMP180;64454;51.984;9.838;2022-11-18T01:28:54;98473.00;;;7.50
75822;BMP180;64454;51.984;9.838;2022-11-18T01:31:22;98476.00;;;7.50
75822;BMP180;64454;51.984;9.838;2022-11-18T01:33:49;98464.00;;;7.50
75822;BMP180;64454;51.984;9.838;2022-11-18T01:36:20;98469.00;;;7.50
75822;BMP180;64454;51.984;9.838;2022-11-18T01:38:48;98474.00;;;7.60
75822;BMP180;64454;51.984;9.838;2022-11-18T01:41:17;98470.00;;;7.60
75822;BMP180;64454;51.984;9.838;2022-11-18T01:43:51;98473.00;;;7.50
75822;BMP180;64454;51.984;9.838;2022-11-18T01:46:20;98467.00;;;7.40
75822;BMP180;64454;51.984;9.838;2022-11-18T01:48:52;98470.00;;;7.40
75822;BMP180;64454;51.984;9.838;2022-11-18T01:51:26;98470.00;;;7.40
75822;BMP180;64454;51.984;9.838;2022-11-18T01:54:00;98468.00;;;7.30
75822;BMP180;64454;51.984;9.838;2022-11-18T01:56:35;98475.00;;;7.40
75822;BMP180;64454;51.984;9.838;2022-11-18T01:59:08;98477.00;;;7.10
75822;BMP180;64454;51.984;9.838;2022-11-18T02:01:37;98477.00;;;7.20
75822;BMP180;64454;51.984;9.838;2022-11-18T02:04:05;98473.00;;;7.20
75822;BMP180;64454;51.984;9.838;2022-11-18T02:06:35;98479.00;;;7.40
75822;BMP180;64454;51.984;9.838;2022-11-18T02:09:02;98477.00;;;7.70
75822;BMP180;64454;51.984;9.838;2022-11-18T02:11:31;98476.00;;;7.50
75822;BMP180;64454;51.984;9.838;2022-11-18T02:14:21;98488.00;;;7.60
75822;BMP180;64454;51.984;9.838;2022-11-18T02:17:03;98489.00;;;7.20
75822;BMP180;64454;51.984;9.838;2022-11-18T02:20:06;98498.00;;;7.20
75822;BMP180;64454;51.984;9.838;2022-11-18T02:26:01;98505.00;;;7.20
75822;BMP180;64454;51.984;9.838;2022-11-18T02:28:37;98505.00;;;7.20
75822;BMP180;64454;51.984;9.838;2022-11-18T02:31:14;98500.00;;;7.10
75822;BMP180;64454;51.984;9.838;2022-11-18T02:33:49;98500.00;;;7.30
75822;BMP180;64454;51.984;9.838;2022-11-18T02:36:24;98516.00;;;7.20
75822;BMP180;64454;51.984;9.838;2022-11-18T02:39:02;98511.00;;;7.00
75822;BMP180;64454;51.984;9.838;2022-11-18T02:41:34;98511.00;;;7.10
75822;BMP180;64454;51.984;9.838;2022-11-18T02:44:07;98517.00;;;7.20
75822;BMP180;64454;51.984;9.838;2022-11-18T02:46:39;98516.00;;;7.50
75822;BMP180;64454;51.984;9.838;2022-11-18T02:49:15;98517.00;;;7.30
75822;BMP180;64454;51.984;9.838;2022-11-18T02:51:45;98516.00;;;7.30
75822;BMP180;64454;51.984;9.838;2022-11-18T02:54:16;98520.00;;;7.20
75822;BMP180;64454;51.984;9.838;2022-11-18T02:56:46;98516.00;;;7.00
75822;BMP180;64454;51.984;9.838;2022-11-18T02:59:17;98521.00;;;7.20
75822;BMP180;64454;51.984;9.838;2022-11-18T03:01:46;98518.00;;;6.90
75822;BMP180;64454;51.984;9.838;2022-11-18T03:04:15;98525.00;;;6.90
75822;BMP180;64454;51.984;9.838;2022-11-18T03:06:49;98524.00;;;7.00
75822;BMP180;64454;51.984;9.838;2022-11-18T03:09:25;98528.00;;;6.90
75822;BMP180;64454;51.984;9.838;2022-11-18T03:12:09;98531.00;;;7.20
75822;BMP180;64454;51.984;9.838;2022-11-18T03:14:47;98534.00;;;6.90
75822;BMP180;64454;51.984;9.838;2022-11-18T03:17:28;98535.00;;;7.00
75822;BMP180;64454;51.984;9.838;2022-11-18T03:20:10;98524.00;;;7.10
75822;BMP180;64454;51.984;9.838;2022-11-18T03:22:51;98535.00;;;7.10
75822;BMP180;64454;51.984;9.838;2022-11-18T03:25:22;98537.00;;;7.10
75822;BMP180;64454;51.984;9.838;2022-11-18T03:28:01;98543.00;;;7.10
75822;BMP180;64454;51.984;9.838;2022-11-18T03:30:33;98547.00;;;6.90
75822;BMP180;64454;51.984;9.838;2022-11-18T03:33:08;98540.00;;;6.90
75822;BMP180;64454;51.984;9.838;2022-11-18T03:35:42;98541.00;;;7.10
75822;BMP180;64454;51.984;9.838;2022-11-18T03:38:16;98551.00;;;7.10
75822;BMP180;64454;51.984;9.838;2022-11-18T03:40:51;98555.00;;;7.20
75822;BMP180;64454;51.984;9.838;2022-11-18T03:43:24;98559.00;;;7.20
75822;BMP180;64454;51.984;9.838;2022-11-18T03:45:59;98557.00;;;7.40
75822;BMP180;64454;51.984;9.838;2022-11-18T03:48:33;98563.00;;;7.10
75822;BMP180;64454;51.984;9.838;2022-11-18T03:51:07;98555.00;;;7.50
75822;BMP180;64454;51.984;9.838;2022-11-18T03:53:39;98561.00;;;7.20
75822;BMP180;64454;51.984;9.838;2022-11-18T03:56:13;98556.00;;;7.10
75822;BMP180;64454;51.984;9.838;2022-11-18T03:58:49;98565.00;;;7.40
75822;BMP180;64454;51.984;9.838;2022-11-18T04:01:24;98570.00;;;7.10
75822;BMP180;64454;51.984;9.838;2022-11-18T04:03:56;98580.00;;;7.20
75822;BMP180;64454;51.984;9.838;2022-11-18T04:06:30;98583.00;;;6.80
75822;BMP180;64454;51.984;9.838;2022-11-18T04:09:09;98586.00;;;7.00
75822;BMP180;64454;51.984;9.838;2022-11-18T04:11:44;98582.00;;;6.80
75822;BMP180;64454;51.984;9.838;2022-11-18T04:14:33;98591.00;;;6.70
75822;BMP180;64454;51.984;9.838;2022-11-18T04:17:07;98598.00;;;6.50
75822;BMP180;64454;51.984;9.838;2022-11-18T04:19:36;98595.00;;;6.70
75822;BMP180;64454;51.984;9.838;2022-11-18T04:22:04;98596.00;;;6.90
75822;BMP180;64454;51.984;9.838;2022-11-18T04:24:31;98608.00;;;7.20
75822;BMP180;64454;51.984;9.838;2022-11-18T04:26:58;98601.00;;;6.90
75822;BMP180;64454;51.984;9.838;2022-11-18T04:29:27;98612.00;;;6.50
75822;BMP180;64454;51.984;9.838;2022-11-18T04:31:54;98614.00;;;6.70
75822;BMP180;64454;51.984;9.838;2022-11-18T04:34:21;98608.00;;;6.80
75822;BMP180;64454;51.984;9.838;2022-11-18T04:36:49;98621.00;;;6.50
75822;BMP180;64454;51.984;9.838;2022-11-18T04:39:16;98624.00;;;6.60
75822;BMP180;64454;51.984;9.838;2022-11-18T04:41:44;98623.00;;;6.70
75822;BMP180;64454;51.984;9.838;2022-11-18T04:44:25;98612.00;;;6.90
75822;BMP180;64454;51.984;9.838;2022-11-18T04:46:53;98629.00;;;6.80
75822;BMP180;64454;51.984;9.838;2022-11-18T04:49:21;98624.00;;;6.50
75822;BMP180;64454;51.984;9.838;2022-11-18T04:51:51;98624.00;;;6.50
75822;BMP180;64454;51.984;9.838;2022-11-18T04:54:19;98624.00;;;6.40
75822;BMP180;64454;51.984;9.838;2022-11-18T04:56:46;98624.00;;;6.70
75822;BMP180;64454;51.984;9.838;2022-11-18T04:59:16;98626.00;;;6.40
75822;BMP180;64454;51.984;9.838;2022-11-18T05:01:43;98635.00;;;6.50
75822;BMP180;64454;51.984;9.838;2022-11-18T05:04:12;98633.00;;;6.60
75822;BMP180;64454;51.984;9.838;2022-11-18T05:06:40;98638.00;;;6.40
75822;BMP180;64454;51.984;9.838;2022-11-18T05:09:09;98649.00;;;6.00
75822;BMP180;64454;51.984;9.838;2022-11-18T05:11:37;98643.00;;;5.90
75822;BMP180;64454;51.984;9.838;2022-11-18T05:14:23;98650.00;;;6.10
75822;BMP180;64454;51.984;9.838;2022-11-18T05:16:50;98654.00;;;6.00
75822;BMP180;64454;51.984;9.838;2022-11-18T05:19:17;98656.00;;;6.00
75822;BMP180;64454;51.984;9.838;2022-11-18T05:21:44;98656.00;;;6.00
75822;BMP180;64454;51.984;9.838;2022-11-18T05:24:13;98653.00;;;6.10
75822;BMP180;64454;51.984;9.838;2022-11-18T05:26:40;98660.00;;;6.20
75822;BMP180;64454;51.984;9.838;2022-11-18T05:29:07;98663.00;;;6.20
75822;BMP180;64454;51.984;9.838;2022-11-18T05:31:34;98664.00;;;6.00
75822;BMP180;64454;51.984;9.838;2022-11-18T05:34:01;98664.00;;;6.20
75822;BMP180;64454;51.984;9.838;2022-11-18T05:36:28;98655.00;;;6.20
75822;BMP180;64454;51.984;9.838;2022-11-18T05:38:57;98669.00;;;6.20
75822;BMP180;64454;51.984;9.838;2022-11-18T05:41:26;98667.00;;;6.40
75822;BMP180;64454;51.984;9.838;2022-11-18T05:44:11;98670.00;;;6.60
75822;BMP180;64454;51.984;9.838;2022-11-18T05:46:38;98675.00;;;6.20
75822;BMP180;64454;51.984;9.838;2022-11-18T05:49:05;98676.00;;;6.30
75822;BMP180;64454;51.984;9.838;2022-11-18T05:51:32;98679.00;;;6.10
75822;BMP180;64454;51.984;9.838;2022-11-18T05:54:03;98689.00;;;6.20
75822;BMP180;64454;51.984;9.838;2022-11-18T05:56:36;98689.00;;;6.00
75822;BMP180;64454;51.984;9.838;2022-11-18T05:59:04;98689.00;;;6.10
75822;BMP180;64454;51.984;9.838;2022-11-18T06:01:36;98695.00;;;6.00
75822;BMP180;64454;51.984;9.838;2022-11-18T06:04:13;98693.00;;;6.00
75822;BMP180;64454;51.984;9.838;2022-11-18T06:06:42;98701.00;;;6.40
75822;BMP180;64454;51.984;9.838;2022-11-18T06:09:11;98697.00;;;6.10
75822;BMP180;64454;51.984;9.838;2022-11-18T06:11:46;98703.00;;;6.50
75822;BMP180;64454;51.984;9.838;2022-11-18T06:14:19;98709.00;;;6.00
75822;BMP180;64454;51.984;9.838;2022-11-18T06:16:52;98707.00;;;6.30
75822;BMP180;64454;51.984;9.838;2022-11-18T06:19:20;98718.00;;;6.30
75822;BMP180;64454;51.984;9.838;2022-11-18T06:21:48;98713.00;;;6.00
75822;BMP180;64454;51.984;9.838;2022-11-18T06:24:16;98728.00;;;5.90
75822;BMP180;64454;51.984;9.838;2022-11-18T06:26:46;98721.00;;;5.90
75822;BMP180;64454;51.984;9.838;2022-11-18T06:29:16;98730.00;;;5.90
75822;BMP180;64454;51.984;9.838;2022-11-18T06:31:45;98724.00;;;5.70
75822;BMP180;64454;51.984;9.838;2022-11-18T06:34:11;98720.00;;;5.70
75822;BMP180;64454;51.984;9.838;2022-11-18T06:36:38;98733.00;;;6.00
75822;BMP180;64454;51.984;9.838;2022-11-18T06:39:06;98739.00;;;5.90
75822;BMP180;64454;51.984;9.838;2022-11-18T06:41:33;98734.00;;;5.70
75822;BMP180;64454;51.984;9.838;2022-11-18T06:44:01;98742.00;;;5.70
75822;BMP180;64454;51.984;9.838;2022-11-18T06:46:27;98735.00;;;5.80
75822;BMP180;64454;51.984;9.838;2022-11-18T06:49:12;98749.00;;;5.80
75822;BMP180;64454;51.984;9.838;2022-11-18T06:51:39;98756.00;;;5.90
75822;BMP180;64454;51.984;9.838;2022-11-18T06:54:06;98753.00;;;6.00
75822;BMP180;64454;51.984;9.838;2022-11-18T06:56:34;98761.00;;;5.60
75822;BMP180;64454;51.984;9.838;2022-11-18T06:59:03;98760.00;;;5.30
75822;BMP180;64454;51.984;9.838;2022-11-18T07:01:33;98759.00;;;5.70
75822;BMP180;64454;51.984;9.838;2022-11-18T07:04:01;98761.00;;;5.90
75822;BMP180;64454;51.984;9.838;2022-11-18T07:06:31;98754.00;;;5.90
75822;BMP180;64454;51.984;9.838;2022-11-18T07:08:59;98771.00;;;5.70
75822;BMP180;64454;51.984;9.838;2022-11-18T07:11:26;98772.00;;;5.60
75822;BMP180;64454;51.984;9.838;2022-11-18T07:13:54;98779.00;;;5.80
75822;BMP180;64454;51.984;9.838;2022-11-18T07:16:25;98781.00;;;5.60
75822;BMP180;64454;51.984;9.838;2022-11-18T07:18:54;98777.00;;;5.50
75822;BMP180;64454;51.984;9.838;2022-11-18T07:21:23;98786.00;;;5.60
75822;BMP180;64454;51.984;9.838;2022-11-18T07:23:51;98785.00;;;5.70
75822;BMP180;64454;51.984;9.838;2022-11-18T07:26:19;98778.00;;;5.80
75822;BMP180;64454;51.984;9.838;2022-11-18T07:28:46;98782.00;;;5.70
75822;BMP180;64454;51.984;9.838;2022-11-18T07:31:17;98793.00;;;5.60
75822;BMP180;64454;51.984;9.838;2022-11-18T07:33:47;98796.00;;;5.50
75822;BMP180;64454;51.984;9.838;2022-11-18T07:36:17;98800.00;;;5.90
75822;BMP180;64454;51.984;9.838;2022-11-18T07:38:45;98799.00;;;5.70
75822;BMP180;64454;51.984;9.838;2022-11-18T07:41:14;98806.00;;;5.70
75822;BMP180;64454;51.984;9.838;2022-11-18T07:43:43;98808.00;;;5.50
75822;BMP180;64454;51.984;9.838;2022-11-18T07:46:12;98814.00;;;5.60
75822;BMP180;64454;51.984;9.838;2022-11-18T07:48:41;98806.00;;;5.40
75822;BMP180;64454;51.984;9.838;2022-11-18T07:51:12;98822.00;;;5.20
75822;BMP180;64454;51.984;9.838;2022-11-18T07:53:40;98824.00;;;5.20
75822;BMP180;64454;51.984;9.838;2022-11-18T07:56:08;98828.00;;;5.30
75822;BMP180;64454;51.984;9.838;2022-11-18T07:58:36;98829.00;;;5.50
75822;BMP180;64454;51.984;9.838;2022-11-18T08:01:07;98831.00;;;5.50
75822;BMP180;64454;51.984;9.838;2022-11-18T08:03:35;98840.00;;;5.80
75822;BMP180;64454;51.984;9.838;2022-11-18T08:06:04;98833.00;;;5.90
75822;BMP180;64454;51.984;9.838;2022-11-18T08:08:33;98846.00;;;5.80
75822;BMP180;64454;51.984;9.838;2022-11-18T08:11:02;98843.00;;;5.10
75822;BMP180;64454;51.984;9.838;2022-11-18T08:13:31;98847.00;;;5.30
75822;BMP180;64454;51.984;9.838;2022-11-18T08:15:58;98841.00;;;5.40
75822;BMP180;64454;51.984;9.838;2022-11-18T08:18:27;98846.00;;;5.40
75822;BMP180;64454;51.984;9.838;2022-11-18T08:20:55;98849.00;;;5.60
75822;BMP180;64454;51.984;9.838;2022-11-18T08:23:22;98860.00;;;5.70
75822;BMP180;64454;51.984;9.838;2022-11-18T08:25:50;98863.00;;;5.50
75822;BMP180;64454;51.984;9.838;2022-11-18T08:28:17;98864.00;;;6.00
75822;BMP180;64454;51.984;9.838;2022-11-18T08:30:44;98859.00;;;5.90
75822;BMP180;64454;51.984;9.838;2022-11-18T08:33:11;98861.00;;;6.00
75822;BMP180;64454;51.984;9.838;2022-11-18T08:35:38;98867.00;;;5.80
75822;BMP180;64454;51.984;9.838;2022-11-18T08:38:05;98868.00;;;5.50
75822;BMP180;64454;51.984;9.838;2022-11-18T08:40:33;98881.00;;;5.60
75822;BMP180;64454;51.984;9.838;2022-11-18T08:43:01;98879.00;;;5.50
75822;BMP180;64454;51.984;9.838;2022-11-18T08:45:28;98891.00;;;5.40
75822;BMP180;64454;51.984;9.838;2022-11-18T08:47:54;98893.00;;;5.60
75822;BMP180;64454;51.984;9.838;2022-11-18T08:50:21;98893.00;;;5.70
75822;BMP180;64454;51.984;9.838;2022-11-18T08:52:48;98899.00;;;5.40
75822;BMP180;64454;51.984;9.838;2022-11-18T08:55:15;98903.00;;;5.70
75822;BMP180;64454;51.984;9.838;2022-11-18T08:57:42;98906.00;;;5.00
75822;BMP180;64454;51.984;9.838;2022-11-18T09:00:13;98901.00;;;5.40
75822;BMP180;64454;51.984;9.838;2022-11-18T09:02:40;98907.00;;;5.40
75822;BMP180;64454;51.984;9.838;2022-11-18T09:05:07;98912.00;;;5.50
75822;BMP180;64454;51.984;9.838;2022-11-18T09:07:34;98922.00;;;5.60
75822;BMP180;64454;51.984;9.838;2022-11-18T09:10:01;98920.00;;;5.40
75822;BMP180;64454;51.984;9.838;2022-11-18T09:12:28;98921.00;;;5.40
75822;BMP180;64454;51.984;9.838;2022-11-18T09:14:55;98933.00;;;5.40
75822;BMP180;64454;51.984;9.838;2022-11-18T09:17:23;98929.00;;;5.40
75822;BMP180;64454;51.984;9.838;2022-11-18T09:19:50;98922.00;;;5.40
75822;BMP180;64454;51.984;9.838;2022-11-18T09:22:17;98932.00;;;5.50
75822;BMP180;64454;51.984;9.838;2022-11-18T09:24:44;98936.00;;;5.40
75822;BMP180;64454;51.984;9.838;2022-11-18T09:27:11;98934.00;;;5.10
75822;BMP180;64454;51.984;9.838;2022-11-18T09:29:38;98942.00;;;5.30
75822;BMP180;64454;51.984;9.838;2022-11-18T09:32:05;98929.00;;;5.30
75822;BMP180;64454;51.984;9.838;2022-11-18T09:34:34;98938.00;;;5.10
75822;BMP180;64454;51.984;9.838;2022-11-18T09:37:02;98934.00;;;5.00
75822;BMP180;64454;51.984;9.838;2022-11-18T09:39:33;98943.00;;;5.40
75822;BMP180;64454;51.984;9.838;2022-11-18T09:42:19;98939.00;;;5.40
75822;BMP180;64454;51.984;9.838;2022-11-18T09:45:06;98950.00;;;5.40
75822;BMP180;64454;51.984;9.838;2022-11-18T09:47:37;98956.00;;;5.20
75822;BMP180;64454;51.984;9.838;2022-11-18T09:50:11;98953.00;;;4.90
75822;BMP180;64454;51.984;9.838;2022-11-18T09:52:45;98962.00;;;5.10
75822;BMP180;64454;51.984;9.838;2022-11-18T09:55:19;98965.00;;;4.90
75822;BMP180;64454;51.984;9.838;2022-11-18T09:57:50;98964.00;;;4.90
75822;BMP180;64454;51.984;9.838;2022-11-18T10:00:21;98960.00;;;5.20
75822;BMP180;64454;51.984;9.838;2022-11-18T10:02:57;98962.00;;;5.30
75822;BMP180;64454;51.984;9.838;2022-11-18T10:05:28;98968.00;;;5.00
75822;BMP180;64454;51.984;9.838;2022-11-18T10:08:22;98974.00;;;5.10
75822;BMP180;64454;51.984;9.838;2022-11-18T10:10:59;98976.00;;;4.80
75822;BMP180;64454;51.984;9.838;2022-11-18T10:13:46;98978.00;;;4.80
75822;BMP180;64454;51.984;9.838;2022-11-18T10:16:28;98987.00;;;5.00
75822;BMP180;64454;51.984;9.838;2022-11-18T10:19:07;98996.00;;;4.90
75822;BMP180;64454;51.984;9.838;2022-11-18T10:21:50;98993.00;;;5.00
75822;BMP180;64454;51.984;9.838;2022-11-18T10:24:24;98990.00;;;5.00
75822;BMP180;64454;51.984;9.838;2022-11-18T10:26:55;98995.00;;;4.90
75822;BMP180;64454;51.984;9.838;2022-11-18T10:29:22;99003.00;;;5.00
75822;BMP180;64454;51.984;9.838;2022-11-18T10:32:00;99005.00;;;5.10
75822;BMP180;64454;51.984;9.838;2022-11-18T10:34:29;99009.00;;;5.00
75822;BMP180;64454;51.984;9.838;2022-11-18T10:37:04;99011.00;;;4.80
75822;BMP180;64454;51.984;9.838;2022-11-18T10:39:31;99016.00;;;4.40
75822;BMP180;64454;51.984;9.838;2022-11-18T10:42:02;99025.00;;;4.50
75822;BMP180;64454;51.984;9.838;2022-11-18T10:44:36;99022.00;;;4.80
75822;BMP180;64454;51.984;9.838;2022-11-18T10:47:27;99028.00;;;4.40
75822;BMP180;64454;51.984;9.838;2022-11-18T10:49:57;99024.00;;;4.60
75822;BMP180;64454;51.984;9.838;2022-11-18T10:52:27;99031.00;;;5.00
75822;BMP180;64454;51.984;9.838;2022-11-18T10:55:19;99024.00;;;4.90
75822;BMP180;64454;51.984;9.838;2022-11-18T10:57:52;99027.00;;;5.00
75822;BMP180;64454;51.984;9.838;2022-11-18T11:00:40;99026.00;;;4.80
75822;BMP180;64454;51.984;9.838;2022-11-18T11:03:33;99031.00;;;4.50
75822;BMP180;64454;51.984;9.838;2022-11-18T11:06:33;99038.00;;;4.50
75822;BMP180;64454;51.984;9.838;2022-11-18T11:09:24;99044.00;;;4.40
75822;BMP180;64454;51.984;9.838;2022-11-18T11:11:59;99049.00;;;4.60
75822;BMP180;64454;51.984;9.838;2022-11-18T11:14:34;99042.00;;;4.90
75822;BMP180;64454;51.984;9.838;2022-11-18T11:17:08;99035.00;;;4.70
75822;BMP180;64454;51.984;9.838;2022-11-18T11:19:50;99040.00;;;4.30
75822;BMP180;64454;51.984;9.838;2022-11-18T11:22:18;99038.00;;;4.20
75822;BMP180;64454;51.984;9.838;2022-11-18T11:24:46;99049.00;;;4.30
75822;BMP180;64454;51.984;9.838;2022-11-18T11:27:40;99044.00;;;4.30
75822;BMP180;64454;51.984;9.838;2022-11-18T11:30:19;99053.00;;;4.20
75822;BMP180;64454;51.984;9.838;2022-11-18T11:33:04;99054.00;;;4.20
75822;BMP180;64454;51.984;9.838;2022-11-18T11:35:46;99063.00;;;4.10
75822;BMP180;64454;51.984;9.838;2022-11-18T11:38:30;99068.00;;;4.10
75822;BMP180;64454;51.984;9.838;2022-11-18T11:41:12;99073.00;;;4.20
75822;BMP180;64454;51.984;9.838;2022-11-18T11:43:58;99081.00;;;4.40
75822;BMP180;64454;51.984;9.838;2022-11-18T11:46:38;99083.00;;;4.10
75822;BMP180;64454;51.984;9.838;2022-11-18T11:49:17;99081.00;;;4.30
75822;BMP180;64454;51.984;9.838;2022-11-18T11:51:49;99090.00;;;4.60
75822;BMP180;64454;51.984;9.838;2022-11-18T11:54:32;99091.00;;;4.20
75822;BMP180;64454;51.984;9.838;2022-11-18T11:57:17;99092.00;;;4.10
75822;BMP180;64454;51.984;9.838;2022-11-18T11:59:57;99087.00;;;4.40
75822;BMP180;64454;51.984;9.838;2022-11-18T12:02:52;99097.00;;;3.90
75822;BMP180;64454;51.984;9.838;2022-11-18T12:05:28;99093.00;;;4.20
75822;BMP180;64454;51.984;9.838;2022-11-18T12:08:02;99102.00;;;4.10
75822;BMP180;64454;51.984;9.838;2022-11-18T12:10:42;99095.00;;;4.30
75822;BMP180;64454;51.984;9.838;2022-11-18T12:13:32;99100.00;;;4.10
75822;BMP180;64454;51.984;9.838;2022-11-18T12:16:24;99100.00;;;4.10
75822;BMP180;64454;51.984;9.838;2022-11-18T12:18:57;99108.00;;;3.90
75822;BMP180;64454;51.984;9.838;2022-11-18T12:21:57;99107.00;;;4.00
75822;BMP180;64454;51.984;9.838;2022-11-18T12:24:34;99095.00;;;4.20
75822;BMP180;64454;51.984;9.838;2022-11-18T12:27:09;99111.00;;;4.40
75822;BMP180;64454;51.984;9.838;2022-11-18T12:29:53;99102.00;;;4.20
75822;BMP180;64454;51.984;9.838;2022-11-18T12:32:34;99100.00;;;4.00
75822;BMP180;64454;51.984;9.838;2022-11-18T12:35:24;99112.00;;;3.90
75822;BMP180;64454;51.984;9.838;2022-11-18T12:38:02;99114.00;;;3.80
75822;BMP180;64454;51.984;9.838;2022-11-18T12:40:41;99118.00;;;3.80
75822;BMP180;64454;51.984;9.838;2022-11-18T12:46:54;99132.00;;;3.70
75822;BMP180;64454;51.984;9.838;2022-11-18T12:50:11;99134.00;;;3.80
75822;BMP180;64454;51.984;9.838;2022-11-18T12:52:59;99130.00;;;3.50
75822;BMP180;64454;51.984;9.838;2022-11-18T12:55:31;99134.00;;;3.40
75822;BMP180;64454;51.984;9.838;2022-11-18T12:57:59;99136.00;;;3.50
75822;BMP180;64454;51.984;9.838;2022-11-18T13:00:33;99137.00;;;3.70
75822;BMP180;64454;51.984;9.838;2022-11-18T13:03:26;99145.00;;;3.80
75822;BMP180;64454;51.984;9.838;2022-11-18T13:06:01;99135.00;;;3.30
75822;BMP180;64454;51.984;9.838;2022-11-18T13:08:30;99150.00;;;3.10
75822;BMP180;64454;51.984;9.838;2022-11-18T13:11:08;99152.00;;;3.30
75822;BMP180;64454;51.984;9.838;2022-11-18T13:13:54;99156.00;;;3.60
75822;BMP180;64454;51.984;9.838;2022-11-18T13:16:36;99153.00;;;3.60
75822;BMP180;64454;51.984;9.838;2022-11-18T13:19:23;99154.00;;;3.50
75822;BMP180;64454;51.984;9.838;2022-11-18T13:21:54;99156.00;;;3.30
75822;BMP180;64454;51.984;9.838;2022-11-18T13:24:44;99159.00;;;3.70
75822;BMP180;64454;51.984;9.838;2022-11-18T13:27:26;99163.00;;;3.40
75822;BMP180;64454;51.984;9.838;2022-11-18T13:30:03;99165.00;;;3.70
75822;BMP180;64454;51.984;9.838;2022-11-18T13:32:31;99171.00;;;3.80
75822;BMP180;64454;51.984;9.838;2022-11-18T13:35:11;99169.00;;;3.80
75822;BMP180;64454;51.984;9.838;2022-11-18T13:37:49;99172.00;;;3.70
75822;BMP180;64454;51.984;9.838;2022-11-18T13:40:24;99170.00;;;2.90
75822;BMP180;64454;51.984;9.838;2022-11-18T13:42:51;99174.00;;;3.40
75822;BMP180;64454;51.984;9.838;2022-11-18T13:45:19;99183.00;;;3.50
75822;BMP180;64454;51.984;9.838;2022-11-18T13:47:52;99176.00;;;3.50
75822;BMP180;64454;51.984;9.838;2022-11-18T13:50:29;99179.00;;;3.10
75822;BMP180;64454;51.984;9.838;2022-11-18T13:53:11;99188.00;;;2.90
75822;BMP180;64454;51.984;9.838;2022-11-18T13:55:46;99177.00;;;3.10
75822;BMP180;64454;51.984;9.838;2022-11-18T13:58:32;99181.00;;;3.30
75822;BMP180;64454;51.984;9.838;2022-11-18T14:01:02;99184.00;;;2.90
75822;BMP180;64454;51.984;9.838;2022-11-18T14:03:33;99186.00;;;3.20
75822;BMP180;64454;51.984;9.838;2022-11-18T14:06:02;99194.00;;;3.30
75822;BMP180;64454;51.984;9.838;2022-11-18T14:08:32;99192.00;;;3.50
75822;BMP180;64454;51.984;9.838;2022-11-18T14:11:00;99206.00;;;3.30
75822;BMP180;64454;51.984;9.838;2022-11-18T14:13:30;99208.00;;;3.30
75822;BMP180;64454;51.984;9.838;2022-11-18T14:15:59;99204.00;;;3.40
75822;BMP180;64454;51.984;9.838;2022-11-18T14:18:30;99222.00;;;2.70
75822;BMP180;64454;51.984;9.838;2022-11-18T14:21:00;99210.00;;;3.10
75822;BMP180;64454;51.984;9.838;2022-11-18T14:23:31;99215.00;;;3.50
75822;BMP180;64454;51.984;9.838;2022-11-18T14:26:01;99222.00;;;2.90
75822;BMP180;64454;51.984;9.838;2022-11-18T14:28:30;99232.00;;;2.70
75822;BMP180;64454;51.984;9.838;2022-11-18T14:31:03;99224.00;;;2.70
75822;BMP180;64454;51.984;9.838;2022-11-18T14:33:33;99221.00;;;2.70
75822;BMP180;64454;51.984;9.838;2022-11-18T14:36:07;99217.00;;;3.20
75822;BMP180;64454;51.984;9.838;2022-11-18T14:38:44;99227.00;;;2.80
75822;BMP180;64454;51.984;9.838;2022-11-18T14:41:14;99229.00;;;2.90
75822;BMP180;64454;51.984;9.838;2022-11-18T14:43:42;99227.00;;;3.00
75822;BMP180;64454;51.984;9.838;2022-11-18T14:46:15;99237.00;;;2.60
75822;BMP180;64454;51.984;9.838;2022-11-18T14:48:43;99243.00;;;2.90
75822;BMP180;64454;51.984;9.838;2022-11-18T14:51:12;99234.00;;;2.70
75822;BMP180;64454;51.984;9.838;2022-11-18T14:53:42;99254.00;;;2.80
75822;BMP180;64454;51.984;9.838;2022-11-18T14:56:14;99246.00;;;2.70
75822;BMP180;64454;51.984;9.838;2022-11-18T14:58:43;99247.00;;;2.90
75822;BMP180;64454;51.984;9.838;2022-11-18T15:01:11;99254.00;;;2.60